createdAt,value
2022-10-19T00:00:26.860Z,11.97
2022-10-19T00:01:32.172Z,11.96
2022-10-19T00:02:37.312Z,11.95
2022-10-19T00:03:42.254Z,11.94
2022-10-19T00:04:46.296Z,11.95
2022-10-19T00:05:50.168Z,11.97
2022-10-19T00:06:54.136Z,11.97
2022-10-19T00:07:58.364Z,11.93
2022-10-19T00:09:11.175Z,11.93
2022-10-19T00:10:15.282Z,11.93
2022-10-19T00:11:21.976Z,11.92
2022-10-19T00:12:27.596Z,11.92
2022-10-19T00:13:31.195Z,11.92
2022-10-19T00:14:35.127Z,11.92
2022-10-19T00:15:40.168Z,11.91
2022-10-19T00:16:45.740Z,11.91
2022-10-19T00:17:49.843Z,11.87
2022-10-19T00:18:57.510Z,11.88
2022-10-19T00:20:01.420Z,11.86
2022-10-19T00:21:07.454Z,11.86
2022-10-19T00:22:13.840Z,11.84
2022-10-19T00:23:17.047Z,11.83
2022-10-19T00:24:21.467Z,11.83
2022-10-19T00:25:25.332Z,11.83
2022-10-19T00:26:29.340Z,11.82
2022-10-19T00:27:33.276Z,11.82
2022-10-19T00:28:37.743Z,11.80
2022-10-19T00:29:41.661Z,11.80
2022-10-19T00:30:45.679Z,11.79
2022-10-19T00:31:51.586Z,11.79
2022-10-19T00:32:55.463Z,11.80
2022-10-19T00:34:00.466Z,11.77
2022-10-19T00:35:04.769Z,11.77
2022-10-19T00:36:14.515Z,11.76
2022-10-19T00:37:20.592Z,11.76
2022-10-19T00:38:24.742Z,11.74
2022-10-19T00:39:30.036Z,11.73
2022-10-19T00:40:40.106Z,11.72
2022-10-19T00:41:45.800Z,11.72
2022-10-19T00:42:56.955Z,11.71
2022-10-19T00:44:06.722Z,11.70
2022-10-19T00:45:13.591Z,11.68
2022-10-19T00:46:17.677Z,11.68
2022-10-19T00:47:23.897Z,11.68
2022-10-19T00:48:30.774Z,11.68
2022-10-19T00:49:37.734Z,11.65
2022-10-19T00:50:43.042Z,11.61
2022-10-19T00:51:49.913Z,11.61
2022-10-19T00:52:56.442Z,11.61
2022-10-19T00:54:03.567Z,11.59
2022-10-19T00:55:09.391Z,11.59
2022-10-19T00:56:17.048Z,11.57
2022-10-19T00:57:21.247Z,11.59
2022-10-19T00:58:25.337Z,11.57
2022-10-19T00:59:30.822Z,11.56
2022-10-19T01:00:34.910Z,11.55
2022-10-19T01:01:39.264Z,11.54
2022-10-19T01:02:43.120Z,11.53
2022-10-19T01:03:51.566Z,11.48
2022-10-19T01:04:56.055Z,11.48
2022-10-19T01:06:02.424Z,11.48
2022-10-19T01:07:07.755Z,11.45
2022-10-19T01:08:12.732Z,11.37
2022-10-19T01:09:16.736Z,11.40
2022-10-19T01:10:23.696Z,11.42
2022-10-19T01:12:02.327Z,11.42
2022-10-19T01:13:17.937Z,11.41
2022-10-19T01:14:49.130Z,11.39
2022-10-19T01:15:58.729Z,11.37
2022-10-19T01:17:05.656Z,11.37
2022-10-19T01:18:20.994Z,11.34
2022-10-19T01:19:55.964Z,11.34
2022-10-19T01:21:21.089Z,11.34
2022-10-19T01:22:47.219Z,11.32
2022-10-19T01:23:54.144Z,11.26
2022-10-19T01:25:21.322Z,11.26
2022-10-19T01:26:33.064Z,11.27
2022-10-19T01:28:00.446Z,11.27
2022-10-19T01:29:10.067Z,11.26
2022-10-19T02:11:22.417Z,10.95
2022-10-19T02:46:44.765Z,10.80
2022-10-19T02:47:51.703Z,10.82
2022-10-19T02:48:57.402Z,10.84
2022-10-19T02:50:05.995Z,10.85
2022-10-19T02:51:32.530Z,10.89
2022-10-19T02:52:39.939Z,10.91
2022-10-19T02:53:43.851Z,10.91
2022-10-19T02:54:47.734Z,10.93
2022-10-19T02:55:52.362Z,10.94
2022-10-19T02:56:57.024Z,10.93
2022-10-19T02:58:02.379Z,10.93
2022-10-19T02:59:06.254Z,10.95
2022-10-19T03:00:11.426Z,10.96
2022-10-19T03:01:15.496Z,10.94
2022-10-19T03:02:20.929Z,10.96
2022-10-19T03:03:26.138Z,10.97
2022-10-19T03:04:31.987Z,10.97
2022-10-19T03:05:35.898Z,10.96
2022-10-19T03:06:39.856Z,10.95
2022-10-19T03:07:45.353Z,10.81
2022-10-19T03:08:49.302Z,10.81
2022-10-19T03:09:53.278Z,10.96
2022-10-19T03:10:59.213Z,10.96
2022-10-19T03:12:03.319Z,10.97
2022-10-19T03:13:07.324Z,10.99
2022-10-19T03:14:11.277Z,10.98
2022-10-19T03:15:19.620Z,10.98
2022-10-19T03:16:23.553Z,11.00
2022-10-19T03:17:27.426Z,10.83
2022-10-19T03:18:32.974Z,10.99
2022-10-19T03:19:37.690Z,10.99
2022-10-19T03:20:41.622Z,11.01
2022-10-19T03:21:45.522Z,11.00
2022-10-19T03:22:49.729Z,11.01
2022-10-19T03:23:53.591Z,11.01
2022-10-19T03:24:57.452Z,11.02
2022-10-19T03:26:01.774Z,11.02
2022-10-19T03:27:05.744Z,11.02
2022-10-19T03:28:09.734Z,11.04
2022-10-19T03:29:13.619Z,11.05
2022-10-19T03:30:17.791Z,11.05
2022-10-19T03:31:23.614Z,11.05
2022-10-19T03:32:27.687Z,11.05
2022-10-19T03:33:31.692Z,11.05
2022-10-19T03:34:35.585Z,11.08
2022-10-19T03:35:39.511Z,11.09
2022-10-19T03:36:43.530Z,11.09
2022-10-19T03:37:47.440Z,11.14
2022-10-19T03:38:55.213Z,11.16
2022-10-19T03:39:59.216Z,11.16
2022-10-19T03:41:06.083Z,11.19
2022-10-19T03:42:09.980Z,11.20
2022-10-19T03:43:13.934Z,11.22
2022-10-19T03:44:17.797Z,11.24
2022-10-19T03:45:21.703Z,11.23
2022-10-19T03:46:26.246Z,11.25
2022-10-19T03:47:30.173Z,11.28
2022-10-19T03:48:34.714Z,11.32
2022-10-19T03:49:40.283Z,11.33
2022-10-19T03:50:44.253Z,11.35
2022-10-19T03:51:48.381Z,11.36
2022-10-19T03:52:52.338Z,11.38
2022-10-19T03:54:07.143Z,11.39
2022-10-19T03:55:11.332Z,11.40
2022-10-19T03:56:18.610Z,11.41
2022-10-19T03:57:24.100Z,11.42
2022-10-19T03:58:27.948Z,11.43
2022-10-19T03:59:33.846Z,11.43
2022-10-19T04:00:37.505Z,11.46
2022-10-19T04:01:44.546Z,11.47
2022-10-19T04:02:48.407Z,11.49
2022-10-19T04:03:56.203Z,11.49
2022-10-19T04:05:01.567Z,11.49
2022-10-19T04:06:08.327Z,11.50
2022-10-19T04:07:12.245Z,11.51
2022-10-19T04:08:16.119Z,11.52
2022-10-19T04:09:22.849Z,11.54
2022-10-19T04:10:26.750Z,11.55
2022-10-19T04:11:31.945Z,11.55
2022-10-19T04:12:35.793Z,11.57
2022-10-19T04:13:41.518Z,11.56
2022-10-19T04:14:56.746Z,11.57
2022-10-19T04:15:50.941Z,11.58
2022-10-19T04:16:56.670Z,11.58
2022-10-19T04:18:02.645Z,11.58
2022-10-19T04:19:06.302Z,11.56
2022-10-19T04:20:10.818Z,11.59
2022-10-19T04:21:29.367Z,11.60
2022-10-19T04:22:33.226Z,11.63
2022-10-19T04:23:38.664Z,11.62
2022-10-19T04:24:42.530Z,11.63
2022-10-19T04:25:46.443Z,11.65
2022-10-19T04:26:53.353Z,11.61
2022-10-19T04:27:57.265Z,11.62
2022-10-19T04:29:09.300Z,11.62
2022-10-19T04:30:43.126Z,11.62
2022-10-19T04:31:40.705Z,11.66
2022-10-19T04:32:44.562Z,11.66
2022-10-19T04:33:48.533Z,11.67
2022-10-19T04:34:52.481Z,11.67
2022-10-19T04:36:07.276Z,11.68
2022-10-19T04:37:10.358Z,11.70
2022-10-19T04:38:14.287Z,11.70
2022-10-19T04:39:19.834Z,11.70
2022-10-19T04:40:23.817Z,11.71
2022-10-19T04:41:29.977Z,11.72
2022-10-19T04:42:35.213Z,11.72
2022-10-19T04:43:39.179Z,11.75
2022-10-19T04:44:43.146Z,11.76
2022-10-19T04:45:47.039Z,11.77
2022-10-19T04:46:51.003Z,11.79
2022-10-19T04:47:55.555Z,11.80
2022-10-19T04:49:00.250Z,11.81
2022-10-19T04:50:04.514Z,11.83
2022-10-19T04:51:08.889Z,11.84
2022-10-19T04:52:21.951Z,11.85
2022-10-19T04:53:21.231Z,11.87
2022-10-19T04:54:26.712Z,11.87
2022-10-19T04:55:30.569Z,11.85
2022-10-19T04:56:34.487Z,11.86
2022-10-19T04:57:38.329Z,11.87
2022-10-19T04:58:42.495Z,11.87
2022-10-19T04:59:48.009Z,11.88
2022-10-19T05:00:54.030Z,11.88
2022-10-19T05:01:59.501Z,11.89
2022-10-19T05:03:03.421Z,11.89
2022-10-19T05:04:07.315Z,11.89
2022-10-19T05:06:18.714Z,11.90
2022-10-19T05:06:49.952Z,11.90
2022-10-19T05:07:24.227Z,11.91
2022-10-19T05:08:28.172Z,11.92
2022-10-19T05:09:33.296Z,11.93
2022-10-19T05:10:38.647Z,11.93
2022-10-19T05:11:42.589Z,11.94
2022-10-19T05:12:46.547Z,11.95
2022-10-19T05:13:51.746Z,11.97
2022-10-19T05:14:55.686Z,11.97
2022-10-19T05:16:02.682Z,11.99
2022-10-19T05:17:06.783Z,11.99
2022-10-19T05:18:12.615Z,12.02
2022-10-19T05:19:16.232Z,12.02
2022-10-19T05:20:23.486Z,12.03
2022-10-19T05:21:33.681Z,12.06
2022-10-19T05:22:36.111Z,12.09
2022-10-19T05:23:42.950Z,12.10
2022-10-19T05:24:54.540Z,12.12
2022-10-19T05:26:07.348Z,12.11
2022-10-19T05:27:11.233Z,12.11
2022-10-19T05:28:15.113Z,12.13
2022-10-19T05:29:18.997Z,12.12
2022-10-19T05:30:23.311Z,12.13
2022-10-19T05:31:29.917Z,12.15
2022-10-19T05:32:43.584Z,12.15
2022-10-19T05:33:43.833Z,12.14
2022-10-19T05:34:48.153Z,12.14
2022-10-19T05:35:56.161Z,12.12
2022-10-19T05:38:25.990Z,12.11
2022-10-19T05:39:31.484Z,12.09
2022-10-19T05:40:35.421Z,12.08
2022-10-19T05:41:39.367Z,12.07
2022-10-19T05:42:43.297Z,12.08
2022-10-19T05:43:49.544Z,12.07
2022-10-19T05:44:53.412Z,12.06
2022-10-19T05:46:00.337Z,12.04
2022-10-19T05:47:05.754Z,12.02
2022-10-19T05:48:11.392Z,12.02
2022-10-19T05:49:17.466Z,12.01
2022-10-19T05:50:21.551Z,12.03
2022-10-19T05:51:27.890Z,12.03
2022-10-19T05:52:31.913Z,12.04
2022-10-19T05:54:45.499Z,12.09
2022-10-19T05:55:51.277Z,12.11
2022-10-19T05:56:56.745Z,12.11
2022-10-19T05:58:02.278Z,12.14
2022-10-19T05:59:22.572Z,12.16
2022-10-19T06:12:30.371Z,12.14
2022-10-19T06:13:49.517Z,12.14
2022-10-19T06:14:57.736Z,12.14
2022-10-19T06:16:03.708Z,12.25
2022-10-19T06:17:07.572Z,12.28
2022-10-19T06:18:13.086Z,12.32
2022-10-19T06:19:17.030Z,12.33
2022-10-19T06:20:20.946Z,12.33
2022-10-19T06:21:31.670Z,12.37
2022-10-19T06:22:36.791Z,12.39
2022-10-19T06:23:45.521Z,12.39
2022-10-19T06:24:51.900Z,12.42
2022-10-19T06:25:55.826Z,12.45
2022-10-19T06:27:01.190Z,12.45
2022-10-19T06:28:08.610Z,12.48
2022-10-19T06:29:12.629Z,12.45
2022-10-19T06:30:22.462Z,12.45
2022-10-19T06:31:32.412Z,12.48
2022-10-19T06:32:36.443Z,12.51
2022-10-19T06:33:41.762Z,12.53
2022-10-19T06:34:46.967Z,12.56
2022-10-19T06:35:50.921Z,12.55
2022-10-19T06:36:54.845Z,12.53
2022-10-19T06:37:58.917Z,12.56
2022-10-19T06:39:03.414Z,12.58
2022-10-19T06:40:07.964Z,12.60
2022-10-19T06:41:12.445Z,12.63
2022-10-19T06:42:16.384Z,12.63
2022-10-19T06:43:20.238Z,12.70
2022-10-19T06:44:24.148Z,12.70
2022-10-19T06:45:31.158Z,12.71
2022-10-19T06:46:33.962Z,12.77
2022-10-19T06:47:38.519Z,12.77
2022-10-19T06:48:42.739Z,12.78
2022-10-19T06:49:48.085Z,12.80
2022-10-19T06:50:59.471Z,12.80
2022-10-19T06:52:05.100Z,12.82
2022-10-19T06:53:09.019Z,12.85
2022-10-19T06:54:14.480Z,12.85
2022-10-19T06:55:18.398Z,12.86
2022-10-19T06:56:23.302Z,12.88
2022-10-19T06:57:27.854Z,12.88
2022-10-19T06:58:33.288Z,12.94
2022-10-19T06:59:37.131Z,12.97
2022-10-19T07:00:41.071Z,12.99
2022-10-19T07:01:44.992Z,12.99
2022-10-19T07:02:48.829Z,13.02
2022-10-19T07:03:53.357Z,13.02
2022-10-19T07:04:57.202Z,13.05
2022-10-19T07:06:03.783Z,13.05
2022-10-19T07:07:09.915Z,13.13
2022-10-19T07:08:13.905Z,13.15
2022-10-19T07:09:17.857Z,13.15
2022-10-19T07:10:21.916Z,13.15
2022-10-19T07:11:25.788Z,13.13
2022-10-19T07:12:30.116Z,13.13
2022-10-19T07:13:34.416Z,13.09
2022-10-19T07:14:40.321Z,13.09
2022-10-19T07:15:43.953Z,13.09
2022-10-19T07:16:49.731Z,13.12
2022-10-19T07:17:53.966Z,13.12
2022-10-19T07:18:57.846Z,13.12
2022-10-19T07:20:01.767Z,13.14
2022-10-19T07:21:08.584Z,13.14
2022-10-19T07:22:15.775Z,13.15
2022-10-19T07:23:19.652Z,13.19
2022-10-19T07:24:24.103Z,13.19
2022-10-19T07:25:29.637Z,13.18
2022-10-19T07:26:33.551Z,13.18
2022-10-19T07:27:37.824Z,13.25
2022-10-19T07:28:43.571Z,13.28
2022-10-19T07:29:48.948Z,13.28
2022-10-19T07:30:53.282Z,13.28
2022-10-19T07:31:57.266Z,13.31
2022-10-19T07:33:01.217Z,13.34
2022-10-19T07:34:07.882Z,13.35
2022-10-19T07:35:11.827Z,13.39
2022-10-19T07:36:15.855Z,13.39
2022-10-19T07:37:21.430Z,13.38
2022-10-19T07:38:26.823Z,13.38
2022-10-19T07:39:32.202Z,13.42
2022-10-19T07:40:36.464Z,13.41
2022-10-19T07:41:42.009Z,13.39
2022-10-19T07:42:46.052Z,13.46
2022-10-19T07:43:51.690Z,13.46
2022-10-19T07:44:55.620Z,13.40
2022-10-19T07:46:05.063Z,13.41
2022-10-19T07:47:08.929Z,13.41
2022-10-19T07:48:12.950Z,13.50
2022-10-19T07:49:17.885Z,13.57
2022-10-19T07:50:22.472Z,13.63
2022-10-19T07:51:26.887Z,13.63
2022-10-19T07:52:33.132Z,13.68
2022-10-19T07:53:39.004Z,13.70
2022-10-19T07:54:44.526Z,13.70
2022-10-19T07:55:48.406Z,13.72
2022-10-19T07:56:52.339Z,13.74
2022-10-19T07:57:56.291Z,13.80
2022-10-19T07:59:01.502Z,13.85
2022-10-19T08:00:06.085Z,13.87
2022-10-19T08:01:12.541Z,13.88
2022-10-19T08:02:17.500Z,13.92
2022-10-19T08:05:35.936Z,14.00
2022-10-19T08:06:41.498Z,14.00
2022-10-19T08:07:49.557Z,14.04
2022-10-19T08:08:53.825Z,14.07
2022-10-19T08:10:06.472Z,14.07
2022-10-19T08:11:27.955Z,14.07
2022-10-19T08:12:33.884Z,14.07
2022-10-19T08:13:40.380Z,14.13
2022-10-19T08:14:46.662Z,14.13
2022-10-19T08:15:52.116Z,14.13
2022-10-19T08:16:56.361Z,14.13
2022-10-19T08:18:18.959Z,14.14
2022-10-19T08:19:18.032Z,14.13
2022-10-19T08:20:25.190Z,14.13
2022-10-19T08:21:39.858Z,14.12
2022-10-19T08:22:42.116Z,14.15
2022-10-19T08:23:46.026Z,14.13
2022-10-19T08:24:49.967Z,14.14
2022-10-19T08:25:58.781Z,14.12
2022-10-19T08:27:02.778Z,14.12
2022-10-19T08:28:06.746Z,14.09
2022-10-19T08:29:19.339Z,14.08
2022-10-19T08:30:24.915Z,14.14
2022-10-19T08:31:28.866Z,14.15
2022-10-19T08:32:41.674Z,14.11
2022-10-19T08:33:46.554Z,14.16
2022-10-19T08:34:50.446Z,14.16
2022-10-19T08:35:54.301Z,14.14
2022-10-19T08:36:59.772Z,14.14
2022-10-19T08:38:03.697Z,14.14
2022-10-19T08:39:09.913Z,14.09
2022-10-19T08:40:21.836Z,14.09
2022-10-19T08:41:46.682Z,14.03
2022-10-19T08:43:02.552Z,14.02
2022-10-19T08:44:44.008Z,14.04
2022-10-19T08:46:10.503Z,14.04
2022-10-19T08:47:32.421Z,14.10
2022-10-19T08:49:34.677Z,14.13
2022-10-19T08:49:56.981Z,14.13
2022-10-19T08:50:59.860Z,14.17
2022-10-19T08:52:09.863Z,14.19
2022-10-19T08:53:27.131Z,14.19
2022-10-19T08:54:42.550Z,14.16
2022-10-19T08:56:22.146Z,14.19
2022-10-19T08:57:52.230Z,14.14
2022-10-19T08:59:01.754Z,14.15
2022-10-19T09:00:17.485Z,14.15
2022-10-19T09:01:33.800Z,14.11
2022-10-19T09:02:44.760Z,14.20
2022-10-19T09:03:55.802Z,14.25
2022-10-19T09:05:02.863Z,14.31
2022-10-19T09:06:25.983Z,14.36
2022-10-19T09:07:35.693Z,14.38
2022-10-19T09:08:40.124Z,14.38
2022-10-19T09:09:47.367Z,14.42
2022-10-19T09:10:53.718Z,14.36
2022-10-19T09:12:00.575Z,14.36
2022-10-19T09:13:07.444Z,14.36
2022-10-19T09:14:50.461Z,14.36
2022-10-19T09:15:56.008Z,14.38
2022-10-19T09:17:02.970Z,14.41
2022-10-19T09:18:15.552Z,14.42
2022-10-19T09:19:22.996Z,14.44
2022-10-19T09:20:35.772Z,14.47
2022-10-19T09:21:47.669Z,14.42
2022-10-19T09:22:58.847Z,14.42
2022-10-19T09:24:20.838Z,14.50
2022-10-19T09:25:28.091Z,14.53
2022-10-19T09:26:35.302Z,14.55
2022-10-19T09:27:42.208Z,14.58
2022-10-19T09:29:03.286Z,14.61
2022-10-19T09:30:22.378Z,14.61
2022-10-19T09:31:40.699Z,14.73
2022-10-19T09:32:40.924Z,14.74
2022-10-19T09:33:47.783Z,14.74
2022-10-19T09:34:57.449Z,14.80
2022-10-19T09:36:04.887Z,14.76
2022-10-19T09:37:08.823Z,14.82
2022-10-19T09:38:16.100Z,14.82
2022-10-19T09:39:20.889Z,14.76
2022-10-19T09:40:30.835Z,14.75
2022-10-19T09:41:35.132Z,14.75
2022-10-19T09:42:39.690Z,14.65
2022-10-19T09:43:46.528Z,14.65
2022-10-19T09:44:52.299Z,14.58
2022-10-19T09:45:59.169Z,14.52
2022-10-19T09:47:27.692Z,14.57
2022-10-19T09:48:35.297Z,14.57
2022-10-19T09:49:47.330Z,14.54
2022-10-19T09:50:54.295Z,14.49
2022-10-19T09:51:58.219Z,14.49
2022-10-19T09:53:05.122Z,14.48
2022-10-19T09:54:11.993Z,14.42
2022-10-19T09:55:18.883Z,14.34
2022-10-19T09:56:25.785Z,14.34
2022-10-19T09:57:29.632Z,14.44
2022-10-19T09:58:35.771Z,14.49
2022-10-19T09:59:41.243Z,14.52
2022-10-19T10:00:53.735Z,14.52
2022-10-19T10:02:06.400Z,14.49
2022-10-19T10:03:25.126Z,14.63
2022-10-19T10:04:29.135Z,14.72
2022-10-19T10:05:38.191Z,14.72
2022-10-19T10:06:43.450Z,14.77
2022-10-19T10:07:48.165Z,14.82
2022-10-19T10:08:54.963Z,14.81
2022-10-19T10:09:58.967Z,14.87
2022-10-19T10:11:14.859Z,14.84
2022-10-19T10:12:21.809Z,14.90
2022-10-19T10:13:27.630Z,14.90
2022-10-19T10:14:34.976Z,14.94
2022-10-19T10:15:47.100Z,14.88
2022-10-19T10:16:56.792Z,14.92
2022-10-19T10:18:00.978Z,14.89
2022-10-19T10:19:08.252Z,14.87
2022-10-19T10:20:31.356Z,14.86
2022-10-19T10:21:50.136Z,14.88
2022-10-19T10:22:59.750Z,14.83
2022-10-19T10:24:13.830Z,14.78
2022-10-19T10:25:19.743Z,14.78
2022-10-19T10:26:25.938Z,14.78
2022-10-19T10:27:34.901Z,14.78
2022-10-19T10:28:43.223Z,14.85
2022-10-19T10:31:08.634Z,14.94
2022-10-19T10:32:15.829Z,14.97
2022-10-19T10:33:27.356Z,14.97
2022-10-19T10:34:50.569Z,15.03
2022-10-19T10:35:53.547Z,15.06
2022-10-19T10:36:58.881Z,15.09
2022-10-19T10:38:07.471Z,15.10
2022-10-19T10:41:11.936Z,15.15
2022-10-19T10:41:47.968Z,15.15
2022-10-19T10:42:56.590Z,15.18
2022-10-19T10:44:05.226Z,15.18
2022-10-19T10:45:31.555Z,15.23
2022-10-19T10:46:39.687Z,15.23
2022-10-19T10:47:47.261Z,15.30
2022-10-19T10:49:06.183Z,15.33
2022-10-19T10:50:20.352Z,15.38
2022-10-19T10:51:36.099Z,15.44
2022-10-19T10:52:40.487Z,15.44
2022-10-19T10:53:46.215Z,15.34
2022-10-19T10:55:04.698Z,15.47
2022-10-19T10:56:25.104Z,15.47
2022-10-19T10:57:34.728Z,15.53
2022-10-19T10:58:41.676Z,15.57
2022-10-19T11:00:09.834Z,15.62
2022-10-19T11:01:23.819Z,15.62
2022-10-19T11:02:32.435Z,15.67
2022-10-19T11:03:39.357Z,15.64
2022-10-19T11:04:51.463Z,15.66
2022-10-19T11:05:59.097Z,15.65
2022-10-19T11:07:05.951Z,15.62
2022-10-19T11:08:41.433Z,15.62
2022-10-19T11:09:57.386Z,15.57
2022-10-19T11:11:13.197Z,15.48
2022-10-19T11:12:25.159Z,15.42
2022-10-19T11:13:33.233Z,15.42
2022-10-19T11:14:47.638Z,15.33
2022-10-19T11:16:03.481Z,15.27
2022-10-19T11:17:10.338Z,15.21
2022-10-19T11:18:34.402Z,15.15
2022-10-19T11:19:41.385Z,15.10
2022-10-19T11:21:00.123Z,15.03
2022-10-19T11:22:34.698Z,14.98
2022-10-19T11:23:44.608Z,14.83
2022-10-19T11:25:07.685Z,14.79
2022-10-19T11:26:30.713Z,14.71
2022-10-19T11:27:49.547Z,14.71
2022-10-19T11:29:20.035Z,14.69
2022-10-19T11:30:17.242Z,14.70
2022-10-19T11:31:38.472Z,14.70
2022-10-19T11:33:09.250Z,14.75
2022-10-19T11:34:25.133Z,14.82
2022-10-19T11:35:50.395Z,14.82
2022-10-19T11:37:03.182Z,14.91
2022-10-19T11:38:29.821Z,14.93
2022-10-19T11:39:31.563Z,14.92
2022-10-19T11:41:06.033Z,14.90
2022-10-19T11:41:55.544Z,14.90
2022-10-19T11:43:09.560Z,14.90
2022-10-19T11:44:19.454Z,14.87
2022-10-19T11:45:42.256Z,14.86
2022-10-19T11:46:58.017Z,14.83
2022-10-19T11:48:08.004Z,14.82
2022-10-19T11:49:29.741Z,14.80
2022-10-19T11:50:46.694Z,14.76
2022-10-19T11:52:05.918Z,14.73
2022-10-19T11:53:23.419Z,14.71
2022-10-19T11:54:40.269Z,14.69
2022-10-19T11:55:58.899Z,14.68
2022-10-19T11:57:26.935Z,14.69
2022-10-19T11:58:57.807Z,14.69
2022-10-19T12:00:15.370Z,14.69
2022-10-19T12:01:31.002Z,14.70
2022-10-19T12:02:46.456Z,14.76
2022-10-19T12:04:04.925Z,14.79
2022-10-19T12:05:17.569Z,14.86
2022-10-19T12:06:30.406Z,14.91
2022-10-19T12:07:56.525Z,14.98
2022-10-19T12:09:09.248Z,15.00
2022-10-19T12:10:38.239Z,15.02
2022-10-19T12:12:19.583Z,15.04
2022-10-19T12:13:29.006Z,15.07
2022-10-19T12:14:35.901Z,15.02
2022-10-19T12:15:45.454Z,15.02
2022-10-19T12:16:52.396Z,15.00
2022-10-19T12:17:59.296Z,14.99
2022-10-19T12:19:06.095Z,14.99
2022-10-19T12:20:33.241Z,14.96
2022-10-19T12:21:40.643Z,14.99
2022-10-19T12:22:45.817Z,15.00
2022-10-19T12:23:50.529Z,15.00
2022-10-19T12:24:57.167Z,15.00
2022-10-19T12:26:04.050Z,14.99
2022-10-19T12:27:09.896Z,15.01
2022-10-19T12:28:19.837Z,15.01
2022-10-19T12:29:30.850Z,15.01
2022-10-19T12:30:36.281Z,15.01
2022-10-19T12:31:40.903Z,14.94
2022-10-19T12:33:16.441Z,14.95
2022-10-19T12:34:38.126Z,14.93
2022-10-19T12:35:47.993Z,14.88
2022-10-19T12:36:57.658Z,14.88
2022-10-19T12:38:07.157Z,14.89
2022-10-19T12:39:19.844Z,14.90
2022-10-19T12:40:40.708Z,14.90
2022-10-19T12:42:05.851Z,14.93
2022-10-19T12:43:17.050Z,14.93
2022-10-19T12:44:59.024Z,14.94
2022-10-19T12:46:26.869Z,14.99
2022-10-19T12:47:33.059Z,14.99
2022-10-19T12:48:37.253Z,15.01
2022-10-19T12:49:52.382Z,15.06
2022-10-19T12:51:03.018Z,15.06
2022-10-19T12:52:07.320Z,15.08
2022-10-19T12:53:14.226Z,15.10
2022-10-19T12:54:21.199Z,15.10
2022-10-19T12:55:50.494Z,15.11
2022-10-19T12:57:09.120Z,15.11
2022-10-19T13:31:35.078Z,15.07
2022-10-19T13:32:47.651Z,15.07
2022-10-19T13:33:52.789Z,15.07
2022-10-19T13:34:58.551Z,15.07
2022-10-19T13:36:08.526Z,15.05
2022-10-19T13:37:13.573Z,15.03
2022-10-19T13:38:20.483Z,15.03
2022-10-19T13:39:26.398Z,15.01
2022-10-19T13:40:31.584Z,15.00
2022-10-19T13:41:41.129Z,15.00
2022-10-19T13:42:45.285Z,14.98
2022-10-19T13:44:07.605Z,15.00
2022-10-19T13:45:26.722Z,14.99
2022-10-19T13:46:33.358Z,14.98
2022-10-19T13:47:42.658Z,14.97
2022-10-19T13:48:58.429Z,14.96
2022-10-19T13:50:05.467Z,14.96
2022-10-19T13:51:28.679Z,14.94
2022-10-19T13:52:44.133Z,14.80
2022-10-19T13:54:02.860Z,14.80
2022-10-19T13:55:31.923Z,14.90
2022-10-19T13:57:05.656Z,14.90
2022-10-19T13:58:12.536Z,14.88
2022-10-19T13:59:22.119Z,14.86
2022-10-19T14:00:51.351Z,14.85
2022-10-19T14:02:16.624Z,14.85
2022-10-19T14:03:44.742Z,14.77
2022-10-19T14:05:12.471Z,14.77
2022-10-19T14:06:28.406Z,14.69
2022-10-19T14:07:36.889Z,14.69
2022-10-19T14:09:17.086Z,14.63
2022-10-19T14:10:28.267Z,14.57
2022-10-19T14:11:41.418Z,14.57
2022-10-19T14:12:47.146Z,14.51
2022-10-19T14:14:13.338Z,14.51
2022-10-19T14:15:30.322Z,14.48
2022-10-19T14:16:34.565Z,14.48
2022-10-19T14:17:42.144Z,14.45
2022-10-19T14:18:58.981Z,14.44
2022-10-19T14:20:10.338Z,14.42
2022-10-19T14:21:15.618Z,14.42
2022-10-19T14:22:28.012Z,14.39
2022-10-19T14:23:35.085Z,14.39
2022-10-19T14:24:39.040Z,14.36
2022-10-19T14:25:45.907Z,14.36
2022-10-19T14:26:51.549Z,14.36
2022-10-19T14:28:04.764Z,14.36
2022-10-19T14:29:11.646Z,14.36
2022-10-19T14:30:36.166Z,14.33
2022-10-19T14:31:42.062Z,14.33
2022-10-19T14:32:46.515Z,14.28
2022-10-19T14:33:56.155Z,14.26
2022-10-19T14:36:10.029Z,14.19
2022-10-19T14:37:26.286Z,14.17
2022-10-19T14:38:35.850Z,14.14
2022-10-19T14:39:39.753Z,14.14
2022-10-19T14:40:43.751Z,14.12
2022-10-19T14:41:47.606Z,14.12
2022-10-19T14:42:53.068Z,14.10
2022-10-19T14:43:58.071Z,14.09
2022-10-19T14:45:02.588Z,14.09
2022-10-19T14:46:12.643Z,14.06
2022-10-19T14:47:26.177Z,14.04
2022-10-19T14:48:30.117Z,14.00
2022-10-19T14:49:36.544Z,13.99
2022-10-19T14:50:49.424Z,13.97
2022-10-19T14:51:56.255Z,13.95
2022-10-19T14:53:03.162Z,13.95
2022-10-19T14:54:22.115Z,13.90
2022-10-19T14:55:29.049Z,13.87
2022-10-19T14:56:39.079Z,13.84
2022-10-19T14:57:46.054Z,13.80
2022-10-19T14:59:13.848Z,13.80
2022-10-19T15:00:23.439Z,13.77
2022-10-19T15:01:27.516Z,13.66
2022-10-19T15:02:48.636Z,13.61
2022-10-19T15:03:53.060Z,13.55
2022-10-19T15:04:59.685Z,13.50
2022-10-19T15:06:08.024Z,13.45
2022-10-19T15:07:19.251Z,13.45
2022-10-19T15:08:28.997Z,13.34
2022-10-19T15:09:37.606Z,13.31
2022-10-19T15:10:47.333Z,13.25
2022-10-19T15:11:52.950Z,13.21
2022-10-19T15:13:02.794Z,13.19
2022-10-19T15:14:15.327Z,13.19
2022-10-19T15:15:22.318Z,13.11
2022-10-19T15:40:28.666Z,12.34
2022-10-19T15:41:35.194Z,12.37
2022-10-19T15:42:43.516Z,12.40
2022-10-19T15:45:30.459Z,12.46
2022-10-19T15:47:45.362Z,12.51
2022-10-19T15:48:55.330Z,12.58
2022-10-19T15:50:03.616Z,12.62
2022-10-19T15:51:18.661Z,12.66
2022-10-19T15:52:24.128Z,12.69
2022-10-19T15:53:29.344Z,12.70
2022-10-19T15:54:33.295Z,12.73
2022-10-19T15:55:39.159Z,12.74
2022-10-19T15:56:49.880Z,12.74
2022-10-19T15:58:00.704Z,12.77
2022-10-19T15:59:07.550Z,12.78
2022-10-19T16:00:18.886Z,12.79
2022-10-19T16:01:26.422Z,12.81
2022-10-19T16:02:30.555Z,12.82
2022-10-19T16:03:34.553Z,12.83
2022-10-19T16:04:41.182Z,12.85
2022-10-19T16:05:48.818Z,12.87
2022-10-19T16:06:52.508Z,12.90
2022-10-19T16:07:57.996Z,12.90
2022-10-19T16:09:05.489Z,12.90
2022-10-19T16:10:18.523Z,12.91
2022-10-19T16:11:29.072Z,12.92
2022-10-19T16:12:29.204Z,12.91
2022-10-19T16:13:33.171Z,12.91
2022-10-19T16:14:37.318Z,12.92
2022-10-19T16:16:01.418Z,12.92
2022-10-19T16:17:02.969Z,12.92
2022-10-19T16:18:02.362Z,12.92
2022-10-19T16:19:08.751Z,12.92
2022-10-19T16:20:13.948Z,12.92
2022-10-19T16:21:19.344Z,12.92
2022-10-19T16:22:23.236Z,12.90
2022-10-19T16:23:27.724Z,12.91
2022-10-19T16:24:31.717Z,12.91
2022-10-19T16:25:37.699Z,12.91
2022-10-19T16:26:41.643Z,12.89
2022-10-19T16:27:45.563Z,12.89
2022-10-19T16:28:50.049Z,12.87
2022-10-19T16:29:56.787Z,12.86
2022-10-19T16:31:00.850Z,12.86
2022-10-19T16:32:04.928Z,12.85
2022-10-19T16:33:08.807Z,12.85
2022-10-19T16:34:12.825Z,12.83
2022-10-19T16:35:16.992Z,12.83
2022-10-19T16:36:24.641Z,12.82
2022-10-19T16:37:28.585Z,12.80
2022-10-19T16:38:34.936Z,12.79
2022-10-19T16:41:26.796Z,12.75
2022-10-19T16:42:36.873Z,12.75
2022-10-19T16:43:57.788Z,12.67
2022-10-19T16:45:01.772Z,12.65
2022-10-19T16:46:06.450Z,12.65
2022-10-19T16:47:10.387Z,12.58
2022-10-19T16:48:15.738Z,12.56
2022-10-19T16:49:21.874Z,12.56
2022-10-19T16:50:37.586Z,12.53
2022-10-19T16:51:42.926Z,12.53
2022-10-19T16:52:46.536Z,12.50
2022-10-19T16:53:53.778Z,12.50
2022-10-19T16:54:57.812Z,12.14
2022-10-19T16:56:08.543Z,12.47
2022-10-19T16:57:12.436Z,12.48
2022-10-19T16:58:16.315Z,12.48
2022-10-19T16:59:25.452Z,12.49
2022-10-19T17:16:55.112Z,12.10
2022-10-19T17:18:00.672Z,12.12
2022-10-19T17:19:06.641Z,12.17
2022-10-19T17:20:11.530Z,12.23
2022-10-19T17:21:21.248Z,12.23
2022-10-19T17:22:26.852Z,12.26
2022-10-19T17:23:30.779Z,12.26
2022-10-19T17:24:34.673Z,12.28
2022-10-19T17:25:40.222Z,12.30
2022-10-19T17:26:44.980Z,12.31
2022-10-19T17:27:53.513Z,12.33
2022-10-19T17:28:59.548Z,12.34
2022-10-19T17:30:03.661Z,12.34
2022-10-19T17:31:17.416Z,12.34
2022-10-19T17:32:22.959Z,12.34
2022-10-19T17:33:28.000Z,12.34
2022-10-19T17:34:31.955Z,12.34
2022-10-19T17:35:36.189Z,12.33
2022-10-19T17:36:44.337Z,12.34
2022-10-19T17:37:48.353Z,12.34
2022-10-19T17:38:55.168Z,12.33